sensor_id;sensor_type;location;lat;lon;timestamp;P1;durP1;ratioP1;P2;durP2;ratioP2
72797;SDS011;61084;55.816;37.036;2023-03-05T00:01:37;1.85;;;0.43;;
72797;SDS011;61084;55.816;37.036;2023-03-05T00:04:04;0.32;;;0.20;;
72797;SDS011;61084;55.816;37.036;2023-03-05T00:06:32;1.50;;;0.50;;
72797;SDS011;61084;55.816;37.036;2023-03-05T00:08:58;1.30;;;0.30;;
72797;SDS011;61084;55.816;37.036;2023-03-05T00:11:25;0.38;;;0.30;;
72797;SDS011;61084;55.816;37.036;2023-03-05T00:13:54;0.68;;;0.38;;
72797;SDS011;61084;55.816;37.036;2023-03-05T00:16:21;1.55;;;0.40;;
72797;SDS011;61084;55.816;37.036;2023-03-05T00:18:47;1.58;;;0.30;;
72797;SDS011;61084;55.816;37.036;2023-03-05T00:21:18;1.38;;;0.43;;
72797;SDS011;61084;55.816;37.036;2023-03-05T00:23:52;1.00;;;0.43;;
72797;SDS011;61084;55.816;37.036;2023-03-05T00:26:19;1.55;;;0.35;;
72797;SDS011;61084;55.816;37.036;2023-03-05T00:28:47;0.95;;;0.30;;
72797;SDS011;61084;55.816;37.036;2023-03-05T00:33:41;1.40;;;0.30;;
72797;SDS011;61084;55.816;37.036;2023-03-05T00:36:08;2.25;;;0.47;;
72797;SDS011;61084;55.816;37.036;2023-03-05T00:38:34;3.60;;;0.40;;
72797;SDS011;61084;55.816;37.036;2023-03-05T00:41:00;0.98;;;0.30;;
72797;SDS011;61084;55.816;37.036;2023-03-05T00:43:27;0.68;;;0.28;;
72797;SDS011;61084;55.816;37.036;2023-03-05T00:45:53;0.95;;;0.52;;
72797;SDS011;61084;55.816;37.036;2023-03-05T00:48:19;0.25;;;0.20;;
72797;SDS011;61084;55.816;37.036;2023-03-05T00:53:13;1.05;;;0.30;;
72797;SDS011;61084;55.816;37.036;2023-03-05T00:55:38;0.40;;;0.40;;
72797;SDS011;61084;55.816;37.036;2023-03-05T00:58:04;2.72;;;0.30;;
72797;SDS011;61084;55.816;37.036;2023-03-05T01:00:31;1.73;;;0.50;;
72797;SDS011;61084;55.816;37.036;2023-03-05T01:02:57;0.50;;;0.30;;
72797;SDS011;61084;55.816;37.036;2023-03-05T01:05:22;0.15;;;0.10;;
72797;SDS011;61084;55.816;37.036;2023-03-05T01:07:51;0.10;;;0.10;;
72797;SDS011;61084;55.816;37.036;2023-03-05T01:10:18;0.77;;;0.20;;
72797;SDS011;61084;55.816;37.036;2023-03-05T01:12:44;2.00;;;0.30;;
72797;SDS011;61084;55.816;37.036;2023-03-05T01:15:10;0.45;;;0.20;;
72797;SDS011;61084;55.816;37.036;2023-03-05T01:17:36;0.20;;;0.15;;
72797;SDS011;61084;55.816;37.036;2023-03-05T01:20:02;3.60;;;0.40;;
72797;SDS011;61084;55.816;37.036;2023-03-05T01:22:29;0.50;;;0.25;;
72797;SDS011;61084;55.816;37.036;2023-03-05T01:24:55;0.93;;;0.20;;
72797;SDS011;61084;55.816;37.036;2023-03-05T01:27:21;0.77;;;0.30;;
72797;SDS011;61084;55.816;37.036;2023-03-05T01:29:47;0.17;;;0.10;;
72797;SDS011;61084;55.816;37.036;2023-03-05T01:32:13;0.20;;;0.17;;
72797;SDS011;61084;55.816;37.036;2023-03-05T01:34:40;1.80;;;0.50;;
72797;SDS011;61084;55.816;37.036;2023-03-05T01:37:06;0.38;;;0.20;;
72797;SDS011;61084;55.816;37.036;2023-03-05T01:39:33;0.60;;;0.20;;
72797;SDS011;61084;55.816;37.036;2023-03-05T01:42:00;0.35;;;0.17;;
72797;SDS011;61084;55.816;37.036;2023-03-05T01:44:27;0.13;;;0.13;;
72797;SDS011;61084;55.816;37.036;2023-03-05T01:46:54;1.75;;;0.20;;
72797;SDS011;61084;55.816;37.036;2023-03-05T01:49:22;0.70;;;0.45;;
72797;SDS011;61084;55.816;37.036;2023-03-05T01:51:52;1.58;;;0.30;;
72797;SDS011;61084;55.816;37.036;2023-03-05T01:54:43;0.63;;;0.17;;
72797;SDS011;61084;55.816;37.036;2023-03-05T01:57:19;0.80;;;0.30;;
72797;SDS011;61084;55.816;37.036;2023-03-05T02:00:10;1.30;;;0.28;;
72797;SDS011;61084;55.816;37.036;2023-03-05T02:02:40;0.77;;;0.28;;
72797;SDS011;61084;55.816;37.036;2023-03-05T02:05:12;1.27;;;0.32;;
72797;SDS011;61084;55.816;37.036;2023-03-05T02:07:42;1.25;;;0.30;;
72797;SDS011;61084;55.816;37.036;2023-03-05T02:10:16;0.50;;;0.38;;
72797;SDS011;61084;55.816;37.036;2023-03-05T02:12:43;0.73;;;0.30;;
72797;SDS011;61084;55.816;37.036;2023-03-05T02:15:29;1.08;;;0.10;;
72797;SDS011;61084;55.816;37.036;2023-03-05T02:17:55;0.30;;;0.10;;
72797;SDS011;61084;55.816;37.036;2023-03-05T02:20:22;1.23;;;0.43;;
72797;SDS011;61084;55.816;37.036;2023-03-05T02:22:50;0.68;;;0.20;;
72797;SDS011;61084;55.816;37.036;2023-03-05T02:28:11;1.73;;;0.43;;
72797;SDS011;61084;55.816;37.036;2023-03-05T02:30:33;1.02;;;0.30;;
72797;SDS011;61084;55.816;37.036;2023-03-05T02:32:59;1.85;;;0.38;;
72797;SDS011;61084;55.816;37.036;2023-03-05T02:35:26;1.25;;;0.60;;
72797;SDS011;61084;55.816;37.036;2023-03-05T02:37:52;0.52;;;0.20;;
72797;SDS011;61084;55.816;37.036;2023-03-05T02:40:18;0.50;;;0.22;;
72797;SDS011;61084;55.816;37.036;2023-03-05T02:42:45;2.45;;;0.47;;
72797;SDS011;61084;55.816;37.036;2023-03-05T02:45:12;0.25;;;0.25;;
72797;SDS011;61084;55.816;37.036;2023-03-05T02:47:38;1.20;;;0.20;;
72797;SDS011;61084;55.816;37.036;2023-03-05T02:52:32;1.55;;;0.60;;
72797;SDS011;61084;55.816;37.036;2023-03-05T02:54:59;2.25;;;0.10;;
72797;SDS011;61084;55.816;37.036;2023-03-05T02:57:28;1.98;;;0.30;;
72797;SDS011;61084;55.816;37.036;2023-03-05T02:59:54;0.82;;;0.20;;
72797;SDS011;61084;55.816;37.036;2023-03-05T03:02:20;4.18;;;0.50;;
72797;SDS011;61084;55.816;37.036;2023-03-05T03:04:45;2.63;;;0.80;;
72797;SDS011;61084;55.816;37.036;2023-03-05T03:07:11;1.15;;;0.28;;
72797;SDS011;61084;55.816;37.036;2023-03-05T03:09:38;1.25;;;0.30;;
72797;SDS011;61084;55.816;37.036;2023-03-05T03:12:04;0.30;;;0.17;;
72797;SDS011;61084;55.816;37.036;2023-03-05T03:14:33;3.30;;;0.40;;
72797;SDS011;61084;55.816;37.036;2023-03-05T03:17:04;0.45;;;0.28;;
72797;SDS011;61084;55.816;37.036;2023-03-05T03:19:31;1.33;;;0.50;;
72797;SDS011;61084;55.816;37.036;2023-03-05T03:21:57;1.13;;;0.50;;
72797;SDS011;61084;55.816;37.036;2023-03-05T03:24:23;1.55;;;0.32;;
72797;SDS011;61084;55.816;37.036;2023-03-05T03:26:48;0.95;;;0.30;;
72797;SDS011;61084;55.816;37.036;2023-03-05T03:29:14;3.17;;;0.55;;
72797;SDS011;61084;55.816;37.036;2023-03-05T03:31:42;0.50;;;0.40;;
72797;SDS011;61084;55.816;37.036;2023-03-05T03:34:11;2.45;;;0.50;;
72797;SDS011;61084;55.816;37.036;2023-03-05T03:36:37;2.33;;;0.40;;
72797;SDS011;61084;55.816;37.036;2023-03-05T03:39:03;0.80;;;0.30;;
72797;SDS011;61084;55.816;37.036;2023-03-05T03:41:30;2.25;;;0.40;;
72797;SDS011;61084;55.816;37.036;2023-03-05T03:43:56;1.08;;;0.30;;
72797;SDS011;61084;55.816;37.036;2023-03-05T03:46:22;0.85;;;0.28;;
72797;SDS011;61084;55.816;37.036;2023-03-05T03:48:48;0.63;;;0.22;;
72797;SDS011;61084;55.816;37.036;2023-03-05T03:51:15;0.63;;;0.20;;
72797;SDS011;61084;55.816;37.036;2023-03-05T03:53:41;1.38;;;0.40;;
72797;SDS011;61084;55.816;37.036;2023-03-05T03:56:07;0.30;;;0.10;;
72797;SDS011;61084;55.816;37.036;2023-03-05T03:58:33;2.13;;;0.35;;
72797;SDS011;61084;55.816;37.036;2023-03-05T04:00:58;2.58;;;0.30;;
72797;SDS011;61084;55.816;37.036;2023-03-05T04:03:24;1.13;;;0.20;;
72797;SDS011;61084;55.816;37.036;2023-03-05T04:05:50;1.83;;;0.20;;
72797;SDS011;61084;55.816;37.036;2023-03-05T04:08:16;1.15;;;0.20;;
72797;SDS011;61084;55.816;37.036;2023-03-05T04:10:42;0.40;;;0.28;;
72797;SDS011;61084;55.816;37.036;2023-03-05T04:13:08;0.13;;;0.13;;
72797;SDS011;61084;55.816;37.036;2023-03-05T04:15:33;2.33;;;0.50;;
72797;SDS011;61084;55.816;37.036;2023-03-05T04:17:59;1.92;;;0.40;;
72797;SDS011;61084;55.816;37.036;2023-03-05T04:20:25;5.53;;;0.65;;
72797;SDS011;61084;55.816;37.036;2023-03-05T04:22:51;1.00;;;0.30;;
72797;SDS011;61084;55.816;37.036;2023-03-05T04:25:17;1.48;;;0.20;;
72797;SDS011;61084;55.816;37.036;2023-03-05T04:27:42;0.30;;;0.20;;
72797;SDS011;61084;55.816;37.036;2023-03-05T04:30:10;0.75;;;0.50;;
72797;SDS011;61084;55.816;37.036;2023-03-05T04:32:39;1.42;;;0.30;;
72797;SDS011;61084;55.816;37.036;2023-03-05T04:35:05;1.70;;;0.50;;
72797;SDS011;61084;55.816;37.036;2023-03-05T04:37:31;0.60;;;0.30;;
72797;SDS011;61084;55.816;37.036;2023-03-05T04:39:57;3.25;;;0.40;;
72797;SDS011;61084;55.816;37.036;2023-03-05T04:42:23;1.08;;;0.32;;
72797;SDS011;61084;55.816;37.036;2023-03-05T04:44:49;4.03;;;0.75;;
72797;SDS011;61084;55.816;37.036;2023-03-05T04:47:16;2.33;;;0.40;;
72797;SDS011;61084;55.816;37.036;2023-03-05T04:49:43;0.30;;;0.30;;
72797;SDS011;61084;55.816;37.036;2023-03-05T04:52:09;2.63;;;0.30;;
72797;SDS011;61084;55.816;37.036;2023-03-05T04:54:37;1.27;;;0.38;;
72797;SDS011;61084;55.816;37.036;2023-03-05T04:57:03;2.65;;;0.50;;
72797;SDS011;61084;55.816;37.036;2023-03-05T04:59:29;1.48;;;0.30;;
72797;SDS011;61084;55.816;37.036;2023-03-05T05:01:55;0.65;;;0.30;;
72797;SDS011;61084;55.816;37.036;2023-03-05T05:04:20;2.50;;;0.40;;
72797;SDS011;61084;55.816;37.036;2023-03-05T05:06:46;1.65;;;0.40;;
72797;SDS011;61084;55.816;37.036;2023-03-05T05:09:12;0.45;;;0.30;;
72797;SDS011;61084;55.816;37.036;2023-03-05T05:11:38;1.35;;;0.35;;
72797;SDS011;61084;55.816;37.036;2023-03-05T05:14:05;1.88;;;0.52;;
72797;SDS011;61084;55.816;37.036;2023-03-05T05:16:31;1.75;;;0.30;;
72797;SDS011;61084;55.816;37.036;2023-03-05T05:18:56;0.50;;;0.32;;
72797;SDS011;61084;55.816;37.036;2023-03-05T05:21:22;0.90;;;0.45;;
72797;SDS011;61084;55.816;37.036;2023-03-05T05:23:49;0.10;;;0.10;;
72797;SDS011;61084;55.816;37.036;2023-03-05T05:26:14;0.70;;;0.13;;
72797;SDS011;61084;55.816;37.036;2023-03-05T05:28:41;0.57;;;0.20;;
72797;SDS011;61084;55.816;37.036;2023-03-05T05:31:12;1.10;;;0.28;;
72797;SDS011;61084;55.816;37.036;2023-03-05T05:33:39;1.38;;;0.52;;
72797;SDS011;61084;55.816;37.036;2023-03-05T05:36:06;1.08;;;0.43;;
72797;SDS011;61084;55.816;37.036;2023-03-05T05:41:03;0.60;;;0.50;;
72797;SDS011;61084;55.816;37.036;2023-03-05T05:43:30;0.95;;;0.47;;
72797;SDS011;61084;55.816;37.036;2023-03-05T05:45:59;0.88;;;0.40;;
72797;SDS011;61084;55.816;37.036;2023-03-05T05:48:27;1.13;;;0.40;;
72797;SDS011;61084;55.816;37.036;2023-03-05T05:50:54;0.22;;;0.22;;
72797;SDS011;61084;55.816;37.036;2023-03-05T05:53:20;4.28;;;0.47;;
72797;SDS011;61084;55.816;37.036;2023-03-05T05:55:47;0.90;;;0.50;;
72797;SDS011;61084;55.816;37.036;2023-03-05T05:58:12;0.65;;;0.50;;
72797;SDS011;61084;55.816;37.036;2023-03-05T06:00:38;2.10;;;0.50;;
72797;SDS011;61084;55.816;37.036;2023-03-05T06:03:04;2.10;;;0.50;;
72797;SDS011;61084;55.816;37.036;2023-03-05T06:05:29;1.15;;;0.63;;
72797;SDS011;61084;55.816;37.036;2023-03-05T06:07:55;1.35;;;0.50;;
72797;SDS011;61084;55.816;37.036;2023-03-05T06:10:21;1.25;;;0.40;;
72797;SDS011;61084;55.816;37.036;2023-03-05T06:12:47;1.55;;;0.30;;
72797;SDS011;61084;55.816;37.036;2023-03-05T06:15:12;1.13;;;0.35;;
72797;SDS011;61084;55.816;37.036;2023-03-05T06:17:38;1.13;;;0.20;;
72797;SDS011;61084;55.816;37.036;2023-03-05T06:20:04;3.33;;;0.40;;
72797;SDS011;61084;55.816;37.036;2023-03-05T06:22:34;0.63;;;0.25;;
72797;SDS011;61084;55.816;37.036;2023-03-05T06:25:00;1.33;;;0.40;;
72797;SDS011;61084;55.816;37.036;2023-03-05T06:29:54;0.45;;;0.30;;
72797;SDS011;61084;55.816;37.036;2023-03-05T06:32:21;2.65;;;0.50;;
72797;SDS011;61084;55.816;37.036;2023-03-05T06:34:48;1.38;;;0.50;;
72797;SDS011;61084;55.816;37.036;2023-03-05T06:37:14;1.58;;;0.70;;
72797;SDS011;61084;55.816;37.036;2023-03-05T06:39:40;1.77;;;0.50;;
72797;SDS011;61084;55.816;37.036;2023-03-05T06:42:06;3.38;;;0.50;;
72797;SDS011;61084;55.816;37.036;2023-03-05T06:44:32;1.35;;;0.75;;
72797;SDS011;61084;55.816;37.036;2023-03-05T06:46:57;1.52;;;0.70;;
72797;SDS011;61084;55.816;37.036;2023-03-05T06:49:23;1.13;;;0.60;;
72797;SDS011;61084;55.816;37.036;2023-03-05T06:51:49;1.42;;;0.75;;
72797;SDS011;61084;55.816;37.036;2023-03-05T06:54:15;1.35;;;0.63;;
72797;SDS011;61084;55.816;37.036;2023-03-05T06:56:42;1.23;;;0.90;;
72797;SDS011;61084;55.816;37.036;2023-03-05T06:59:10;1.55;;;0.80;;
72797;SDS011;61084;55.816;37.036;2023-03-05T07:01:37;4.35;;;0.90;;
72797;SDS011;61084;55.816;37.036;2023-03-05T07:04:04;1.58;;;1.02;;
72797;SDS011;61084;55.816;37.036;2023-03-05T07:06:31;2.47;;;1.05;;
72797;SDS011;61084;55.816;37.036;2023-03-05T07:08:59;2.83;;;1.10;;
72797;SDS011;61084;55.816;37.036;2023-03-05T07:11:26;1.85;;;1.05;;
72797;SDS011;61084;55.816;37.036;2023-03-05T07:13:52;2.35;;;1.27;;
72797;SDS011;61084;55.816;37.036;2023-03-05T07:16:19;2.67;;;1.50;;
72797;SDS011;61084;55.816;37.036;2023-03-05T07:18:47;3.55;;;1.80;;
72797;SDS011;61084;55.816;37.036;2023-03-05T07:21:14;3.15;;;1.90;;
72797;SDS011;61084;55.816;37.036;2023-03-05T07:23:42;3.40;;;1.98;;
72797;SDS011;61084;55.816;37.036;2023-03-05T07:26:09;3.90;;;2.03;;
72797;SDS011;61084;55.816;37.036;2023-03-05T07:28:35;2.50;;;1.75;;
72797;SDS011;61084;55.816;37.036;2023-03-05T07:31:03;3.78;;;1.77;;
72797;SDS011;61084;55.816;37.036;2023-03-05T07:33:30;2.50;;;1.70;;
72797;SDS011;61084;55.816;37.036;2023-03-05T07:35:56;3.30;;;1.80;;
72797;SDS011;61084;55.816;37.036;2023-03-05T07:38:22;2.75;;;1.80;;
72797;SDS011;61084;55.816;37.036;2023-03-05T07:40:48;4.20;;;2.22;;
72797;SDS011;61084;55.816;37.036;2023-03-05T07:43:15;3.67;;;2.25;;
72797;SDS011;61084;55.816;37.036;2023-03-05T07:48:11;4.10;;;2.28;;
72797;SDS011;61084;55.816;37.036;2023-03-05T07:50:39;6.82;;;1.83;;
72797;SDS011;61084;55.816;37.036;2023-03-05T07:53:05;3.45;;;2.10;;
72797;SDS011;61084;55.816;37.036;2023-03-05T07:55:31;3.40;;;2.53;;
72797;SDS011;61084;55.816;37.036;2023-03-05T07:57:57;3.15;;;1.90;;
72797;SDS011;61084;55.816;37.036;2023-03-05T08:00:23;2.78;;;1.80;;
72797;SDS011;61084;55.816;37.036;2023-03-05T08:02:48;3.80;;;2.30;;
72797;SDS011;61084;55.816;37.036;2023-03-05T08:05:15;4.45;;;2.60;;
72797;SDS011;61084;55.816;37.036;2023-03-05T08:07:41;3.50;;;1.92;;
72797;SDS011;61084;55.816;37.036;2023-03-05T08:10:07;3.80;;;1.92;;
72797;SDS011;61084;55.816;37.036;2023-03-05T08:12:33;3.20;;;2.15;;
72797;SDS011;61084;55.816;37.036;2023-03-05T08:14:59;5.55;;;2.47;;
72797;SDS011;61084;55.816;37.036;2023-03-05T08:17:25;4.25;;;1.95;;
72797;SDS011;61084;55.816;37.036;2023-03-05T08:19:51;3.53;;;1.92;;
72797;SDS011;61084;55.816;37.036;2023-03-05T08:22:18;4.15;;;2.20;;
72797;SDS011;61084;55.816;37.036;2023-03-05T08:24:44;3.63;;;1.75;;
72797;SDS011;61084;55.816;37.036;2023-03-05T08:27:10;4.18;;;1.88;;
72797;SDS011;61084;55.816;37.036;2023-03-05T08:29:36;3.33;;;1.92;;
72797;SDS011;61084;55.816;37.036;2023-03-05T08:32:02;3.50;;;1.90;;
72797;SDS011;61084;55.816;37.036;2023-03-05T08:34:28;3.72;;;2.22;;
72797;SDS011;61084;55.816;37.036;2023-03-05T08:36:54;4.03;;;2.00;;
72797;SDS011;61084;55.816;37.036;2023-03-05T08:39:20;4.70;;;1.98;;
72797;SDS011;61084;55.816;37.036;2023-03-05T08:41:45;3.80;;;2.20;;
72797;SDS011;61084;55.816;37.036;2023-03-05T08:44:11;4.90;;;2.17;;
72797;SDS011;61084;55.816;37.036;2023-03-05T08:46:38;4.53;;;2.00;;
72797;SDS011;61084;55.816;37.036;2023-03-05T08:49:04;3.80;;;2.20;;
72797;SDS011;61084;55.816;37.036;2023-03-05T08:51:31;4.40;;;2.17;;
72797;SDS011;61084;55.816;37.036;2023-03-05T08:53:58;3.20;;;2.20;;
72797;SDS011;61084;55.816;37.036;2023-03-05T08:56:24;4.57;;;1.90;;
72797;SDS011;61084;55.816;37.036;2023-03-05T08:58:52;3.17;;;2.00;;
72797;SDS011;61084;55.816;37.036;2023-03-05T09:01:18;4.00;;;2.55;;
72797;SDS011;61084;55.816;37.036;2023-03-05T09:03:44;3.13;;;1.92;;
72797;SDS011;61084;55.816;37.036;2023-03-05T09:06:10;4.13;;;2.15;;
72797;SDS011;61084;55.816;37.036;2023-03-05T09:08:37;3.55;;;2.10;;
72797;SDS011;61084;55.816;37.036;2023-03-05T09:11:04;3.85;;;2.05;;
72797;SDS011;61084;55.816;37.036;2023-03-05T09:13:32;3.25;;;2.05;;
72797;SDS011;61084;55.816;37.036;2023-03-05T09:15:59;3.70;;;2.10;;
72797;SDS011;61084;55.816;37.036;2023-03-05T09:18:27;5.45;;;2.50;;
72797;SDS011;61084;55.816;37.036;2023-03-05T09:20:53;3.15;;;2.17;;
72797;SDS011;61084;55.816;37.036;2023-03-05T09:23:19;5.00;;;2.03;;
72797;SDS011;61084;55.816;37.036;2023-03-05T09:25:45;3.90;;;2.30;;
72797;SDS011;61084;55.816;37.036;2023-03-05T09:28:11;3.40;;;1.80;;
72797;SDS011;61084;55.816;37.036;2023-03-05T09:30:37;4.15;;;2.30;;
72797;SDS011;61084;55.816;37.036;2023-03-05T09:33:03;4.63;;;2.13;;
72797;SDS011;61084;55.816;37.036;2023-03-05T09:35:34;4.38;;;2.10;;
72797;SDS011;61084;55.816;37.036;2023-03-05T09:38:01;3.60;;;2.22;;
72797;SDS011;61084;55.816;37.036;2023-03-05T09:40:29;2.30;;;1.75;;
72797;SDS011;61084;55.816;37.036;2023-03-05T09:43:18;4.95;;;1.90;;
72797;SDS011;61084;55.816;37.036;2023-03-05T09:46:08;5.78;;;2.08;;
72797;SDS011;61084;55.816;37.036;2023-03-05T09:48:52;3.40;;;2.20;;
72797;SDS011;61084;55.816;37.036;2023-03-05T09:51:32;3.80;;;2.40;;
72797;SDS011;61084;55.816;37.036;2023-03-05T09:54:06;3.22;;;2.17;;
72797;SDS011;61084;55.816;37.036;2023-03-05T09:56:39;3.38;;;2.20;;
72797;SDS011;61084;55.816;37.036;2023-03-05T10:01:55;6.57;;;3.22;;
72797;SDS011;61084;55.816;37.036;2023-03-05T10:04:32;3.60;;;1.95;;
72797;SDS011;61084;55.816;37.036;2023-03-05T10:10:17;2.63;;;1.85;;
72797;SDS011;61084;55.816;37.036;2023-03-05T10:12:50;4.72;;;1.95;;
72797;SDS011;61084;55.816;37.036;2023-03-05T10:18:21;2.40;;;1.52;;
72797;SDS011;61084;55.816;37.036;2023-03-05T10:20:57;3.22;;;1.77;;
72797;SDS011;61084;55.816;37.036;2023-03-05T10:23:27;3.92;;;1.85;;
72797;SDS011;61084;55.816;37.036;2023-03-05T10:28:42;2.63;;;1.80;;
72797;SDS011;61084;55.816;37.036;2023-03-05T10:34:11;4.00;;;1.92;;
72797;SDS011;61084;55.816;37.036;2023-03-05T10:44:46;2.50;;;1.75;;
72797;SDS011;61084;55.816;37.036;2023-03-05T10:52:18;4.50;;;2.20;;
72797;SDS011;61084;55.816;37.036;2023-03-05T10:54:48;4.30;;;2.30;;
72797;SDS011;61084;55.816;37.036;2023-03-05T10:57:15;4.43;;;2.40;;
72797;SDS011;61084;55.816;37.036;2023-03-05T11:02:25;5.13;;;2.55;;
72797;SDS011;61084;55.816;37.036;2023-03-05T11:04:52;6.10;;;2.40;;
72797;SDS011;61084;55.816;37.036;2023-03-05T11:12:36;5.38;;;2.25;;
72797;SDS011;61084;55.816;37.036;2023-03-05T11:15:05;3.97;;;2.40;;
72797;SDS011;61084;55.816;37.036;2023-03-05T11:20:37;3.55;;;2.40;;
72797;SDS011;61084;55.816;37.036;2023-03-05T11:25:28;4.10;;;1.98;;
72797;SDS011;61084;55.816;37.036;2023-03-05T11:27:54;3.63;;;2.25;;
72797;SDS011;61084;55.816;37.036;2023-03-05T11:30:26;3.67;;;2.25;;
72797;SDS011;61084;55.816;37.036;2023-03-05T11:35:50;4.57;;;2.10;;
72797;SDS011;61084;55.816;37.036;2023-03-05T11:40:51;3.80;;;2.05;;
72797;SDS011;61084;55.816;37.036;2023-03-05T11:43:20;3.50;;;2.20;;
72797;SDS011;61084;55.816;37.036;2023-03-05T11:45:48;3.30;;;1.75;;
72797;SDS011;61084;55.816;37.036;2023-03-05T11:48:24;3.83;;;2.38;;
72797;SDS011;61084;55.816;37.036;2023-03-05T11:50:57;4.10;;;2.35;;
72797;SDS011;61084;55.816;37.036;2023-03-05T11:53:26;6.43;;;3.40;;
72797;SDS011;61084;55.816;37.036;2023-03-05T12:01:09;5.13;;;2.20;;
72797;SDS011;61084;55.816;37.036;2023-03-05T12:03:42;3.22;;;2.00;;
72797;SDS011;61084;55.816;37.036;2023-03-05T12:06:13;3.25;;;1.83;;
72797;SDS011;61084;55.816;37.036;2023-03-05T12:09:46;2.95;;;2.00;;
72797;SDS011;61084;55.816;37.036;2023-03-05T12:12:07;2.92;;;1.90;;
72797;SDS011;61084;55.816;37.036;2023-03-05T12:14:50;3.10;;;1.85;;
72797;SDS011;61084;55.816;37.036;2023-03-05T12:17:23;5.55;;;2.08;;
72797;SDS011;61084;55.816;37.036;2023-03-05T12:20:12;4.18;;;1.73;;
72797;SDS011;61084;55.816;37.036;2023-03-05T12:22:47;3.42;;;1.83;;
72797;SDS011;61084;55.816;37.036;2023-03-05T12:30:56;4.13;;;2.30;;
72797;SDS011;61084;55.816;37.036;2023-03-05T12:33:29;4.53;;;2.20;;
72797;SDS011;61084;55.816;37.036;2023-03-05T12:38:41;3.15;;;2.00;;
72797;SDS011;61084;55.816;37.036;2023-03-05T12:46:33;2.65;;;1.45;;
72797;SDS011;61084;55.816;37.036;2023-03-05T12:49:24;3.22;;;1.70;;
72797;SDS011;61084;55.816;37.036;2023-03-05T12:51:51;2.30;;;1.20;;
72797;SDS011;61084;55.816;37.036;2023-03-05T12:56:56;3.10;;;1.42;;
72797;SDS011;61084;55.816;37.036;2023-03-05T12:59:32;3.50;;;1.65;;
72797;SDS011;61084;55.816;37.036;2023-03-05T13:02:17;2.38;;;1.40;;
72797;SDS011;61084;55.816;37.036;2023-03-05T13:04:47;4.63;;;1.77;;
72797;SDS011;61084;55.816;37.036;2023-03-05T13:07:17;2.63;;;1.38;;
72797;SDS011;61084;55.816;37.036;2023-03-05T13:09:50;2.22;;;1.45;;
72797;SDS011;61084;55.816;37.036;2023-03-05T13:12:20;2.95;;;1.88;;
72797;SDS011;61084;55.816;37.036;2023-03-05T13:14:54;1.65;;;1.52;;
72797;SDS011;61084;55.816;37.036;2023-03-05T13:20:36;3.33;;;1.83;;
72797;SDS011;61084;55.816;37.036;2023-03-05T13:25:39;2.83;;;1.58;;
72797;SDS011;61084;55.816;37.036;2023-03-05T13:28:15;3.38;;;1.75;;
72797;SDS011;61084;55.816;37.036;2023-03-05T13:30:49;2.63;;;1.52;;
72797;SDS011;61084;55.816;37.036;2023-03-05T13:33:28;3.00;;;1.55;;
72797;SDS011;61084;55.816;37.036;2023-03-05T13:35:56;2.95;;;2.00;;
72797;SDS011;61084;55.816;37.036;2023-03-05T13:38:24;3.42;;;1.98;;
72797;SDS011;61084;55.816;37.036;2023-03-05T13:43:50;4.55;;;2.03;;
72797;SDS011;61084;55.816;37.036;2023-03-05T13:46:22;4.18;;;2.30;;
72797;SDS011;61084;55.816;37.036;2023-03-05T13:48:49;3.95;;;2.17;;
72797;SDS011;61084;55.816;37.036;2023-03-05T13:51:15;4.32;;;2.13;;
72797;SDS011;61084;55.816;37.036;2023-03-05T13:53:41;4.28;;;1.85;;
72797;SDS011;61084;55.816;37.036;2023-03-05T13:56:12;5.35;;;1.90;;
72797;SDS011;61084;55.816;37.036;2023-03-05T14:09:07;3.88;;;1.95;;
72797;SDS011;61084;55.816;37.036;2023-03-05T14:14:57;4.38;;;2.40;;
72797;SDS011;61084;55.816;37.036;2023-03-05T14:20:05;2.33;;;1.40;;
72797;SDS011;61084;55.816;37.036;2023-03-05T14:22:44;3.33;;;1.80;;
72797;SDS011;61084;55.816;37.036;2023-03-05T14:28:05;7.32;;;2.80;;
72797;SDS011;61084;55.816;37.036;2023-03-05T14:30:47;18.73;;;6.30;;
72797;SDS011;61084;55.816;37.036;2023-03-05T14:33:19;12.00;;;4.93;;
72797;SDS011;61084;55.816;37.036;2023-03-05T14:35:51;6.35;;;2.50;;
72797;SDS011;61084;55.816;37.036;2023-03-05T14:38:21;2.38;;;1.60;;
72797;SDS011;61084;55.816;37.036;2023-03-05T14:40:49;4.90;;;2.15;;
72797;SDS011;61084;55.816;37.036;2023-03-05T14:43:15;4.30;;;2.05;;
72797;SDS011;61084;55.816;37.036;2023-03-05T14:45:41;3.88;;;2.00;;
72797;SDS011;61084;55.816;37.036;2023-03-05T14:48:12;3.47;;;2.03;;
72797;SDS011;61084;55.816;37.036;2023-03-05T14:50:43;5.57;;;2.10;;
72797;SDS011;61084;55.816;37.036;2023-03-05T14:53:21;6.65;;;2.33;;
72797;SDS011;61084;55.816;37.036;2023-03-05T14:55:49;6.75;;;3.40;;
72797;SDS011;61084;55.816;37.036;2023-03-05T14:58:21;4.53;;;2.78;;
72797;SDS011;61084;55.816;37.036;2023-03-05T15:00:53;2.75;;;2.05;;
72797;SDS011;61084;55.816;37.036;2023-03-05T15:03:20;3.70;;;1.98;;
72797;SDS011;61084;55.816;37.036;2023-03-05T15:05:47;3.95;;;1.90;;
72797;SDS011;61084;55.816;37.036;2023-03-05T15:08:22;9.43;;;4.20;;
72797;SDS011;61084;55.816;37.036;2023-03-05T15:10:50;8.35;;;4.32;;
72797;SDS011;61084;55.816;37.036;2023-03-05T15:13:17;6.07;;;3.05;;
72797;SDS011;61084;55.816;37.036;2023-03-05T15:15:43;4.95;;;2.67;;
72797;SDS011;61084;55.816;37.036;2023-03-05T15:18:11;6.25;;;3.53;;
72797;SDS011;61084;55.816;37.036;2023-03-05T15:20:38;4.50;;;2.53;;
72797;SDS011;61084;55.816;37.036;2023-03-05T15:23:04;8.00;;;3.03;;
72797;SDS011;61084;55.816;37.036;2023-03-05T15:25:31;5.53;;;2.40;;
72797;SDS011;61084;55.816;37.036;2023-03-05T15:27:57;4.20;;;2.10;;
72797;SDS011;61084;55.816;37.036;2023-03-05T15:30:28;5.95;;;2.30;;
72797;SDS011;61084;55.816;37.036;2023-03-05T15:32:56;4.38;;;1.88;;
72797;SDS011;61084;55.816;37.036;2023-03-05T15:35:24;3.70;;;2.10;;
72797;SDS011;61084;55.816;37.036;2023-03-05T15:37:51;2.80;;;2.13;;
72797;SDS011;61084;55.816;37.036;2023-03-05T15:40:17;3.30;;;1.98;;
72797;SDS011;61084;55.816;37.036;2023-03-05T15:42:45;6.85;;;2.28;;
72797;SDS011;61084;55.816;37.036;2023-03-05T15:45:11;4.80;;;2.30;;
72797;SDS011;61084;55.816;37.036;2023-03-05T15:47:39;3.42;;;2.15;;
72797;SDS011;61084;55.816;37.036;2023-03-05T15:50:06;3.78;;;2.33;;
72797;SDS011;61084;55.816;37.036;2023-03-05T15:52:32;4.47;;;2.55;;
72797;SDS011;61084;55.816;37.036;2023-03-05T15:54:59;4.57;;;2.50;;
72797;SDS011;61084;55.816;37.036;2023-03-05T15:57:25;5.38;;;2.60;;
72797;SDS011;61084;55.816;37.036;2023-03-05T15:59:50;4.95;;;2.95;;
72797;SDS011;61084;55.816;37.036;2023-03-05T16:02:18;5.78;;;3.20;;
72797;SDS011;61084;55.816;37.036;2023-03-05T16:04:44;6.18;;;3.20;;
72797;SDS011;61084;55.816;37.036;2023-03-05T16:07:10;5.68;;;2.72;;
72797;SDS011;61084;55.816;37.036;2023-03-05T16:09:41;6.43;;;2.78;;
72797;SDS011;61084;55.816;37.036;2023-03-05T16:12:11;6.75;;;3.30;;
72797;SDS011;61084;55.816;37.036;2023-03-05T16:14:40;10.73;;;3.28;;
72797;SDS011;61084;55.816;37.036;2023-03-05T16:17:06;10.00;;;4.47;;
72797;SDS011;61084;55.816;37.036;2023-03-05T16:19:34;10.52;;;5.68;;
72797;SDS011;61084;55.816;37.036;2023-03-05T16:22:03;10.60;;;4.88;;
72797;SDS011;61084;55.816;37.036;2023-03-05T16:24:29;17.98;;;6.97;;
72797;SDS011;61084;55.816;37.036;2023-03-05T16:26:57;17.73;;;7.00;;
72797;SDS011;61084;55.816;37.036;2023-03-05T16:29:23;18.70;;;8.75;;
72797;SDS011;61084;55.816;37.036;2023-03-05T16:31:49;17.85;;;7.50;;
72797;SDS011;61084;55.816;37.036;2023-03-05T16:34:15;16.10;;;6.97;;